createdAt,value
2023-08-07T00:03:41.146Z,97745.25
2023-08-07T00:08:42.880Z,97741.91
2023-08-07T00:13:44.524Z,97752.84
2023-08-07T00:18:46.192Z,97744.84
2023-08-07T00:23:47.759Z,97753.34
2023-08-07T00:28:49.470Z,97748.28
2023-08-07T00:33:55.091Z,97745.78
2023-08-07T00:38:57.001Z,97742.78
2023-08-07T00:43:58.865Z,97731.00
2023-08-07T00:49:00.622Z,97730.44
2023-08-07T00:54:05.814Z,97736.94
2023-08-07T00:59:08.029Z,97737.84
2023-08-07T01:04:09.729Z,97734.06
2023-08-07T01:09:11.448Z,97731.06
2023-08-07T01:14:16.040Z,97737.63
2023-08-07T01:19:26.277Z,97737.16
2023-08-07T01:24:28.027Z,97739.34
2023-08-07T01:29:41.362Z,97746.53
2023-08-07T01:34:46.387Z,97741.25
2023-08-07T01:39:49.716Z,97746.81
2023-08-07T01:44:51.497Z,97742.53
2023-08-07T01:49:53.270Z,97751.59
2023-08-07T01:54:54.997Z,97739.47
2023-08-07T01:59:56.643Z,97752.94
2023-08-07T02:04:58.272Z,97747.69
2023-08-07T02:09:59.983Z,97753.19
2023-08-07T02:15:02.293Z,97748.47
2023-08-07T02:20:04.279Z,97740.31
2023-08-07T02:25:06.471Z,97744.38
2023-08-07T02:30:08.511Z,97747.03
2023-08-07T02:35:10.122Z,97753.97
2023-08-07T02:40:18.051Z,97750.47
2023-08-07T02:45:19.737Z,97749.44
2023-08-07T02:50:21.337Z,97750.16
2023-08-07T02:55:22.982Z,97753.94
2023-08-07T03:00:24.689Z,97755.41
2023-08-07T03:05:26.325Z,97756.94
2023-08-07T03:10:28.034Z,97758.94
2023-08-07T03:15:29.693Z,97752.03
2023-08-07T03:20:31.244Z,97744.59
2023-08-07T03:25:32.853Z,97742.94
2023-08-07T03:30:34.588Z,97750.66
2023-08-07T03:35:36.216Z,97737.78
2023-08-07T03:40:37.920Z,97748.00
2023-08-07T03:45:40.830Z,97739.63
2023-08-07T03:50:42.581Z,97754.69
2023-08-07T03:55:46.101Z,97767.03
2023-08-07T04:00:48.391Z,97768.63
2023-08-07T04:05:54.524Z,97775.34
2023-08-07T04:11:03.603Z,97789.44
2023-08-07T04:16:06.035Z,97786.28
2023-08-07T04:21:07.797Z,97775.53
2023-08-07T04:26:09.445Z,97790.91
2023-08-07T04:31:11.077Z,97795.91
2023-08-07T04:36:12.721Z,97788.22
2023-08-07T04:41:14.635Z,97787.72
2023-08-07T04:46:16.413Z,97783.88
2023-08-07T04:51:18.194Z,97781.81
2023-08-07T04:56:19.931Z,97798.66
2023-08-07T05:01:22.254Z,97787.94
2023-08-07T05:06:23.996Z,97796.63
2023-08-07T05:11:25.629Z,97803.69
2023-08-07T05:16:27.351Z,97800.34
2023-08-07T05:21:29.094Z,97799.03
2023-08-07T05:26:31.014Z,97808.13
2023-08-07T05:31:32.743Z,97802.44
2023-08-07T05:36:34.423Z,97806.94
2023-08-07T05:41:36.232Z,97810.56
2023-08-07T05:46:38.038Z,97817.63
2023-08-07T05:51:39.749Z,97829.56
2023-08-07T05:56:42.403Z,97826.63
2023-08-07T06:01:44.652Z,97836.69
2023-08-07T06:06:47.192Z,97844.47
2023-08-07T06:11:49.708Z,97850.03
2023-08-07T06:16:51.427Z,97843.19
2023-08-07T06:21:53.112Z,97853.41
2023-08-07T06:26:54.873Z,97857.41
2023-08-07T06:31:56.899Z,97847.66
2023-08-07T06:36:58.723Z,97850.22
2023-08-07T06:42:01.900Z,97856.97
2023-08-07T06:47:03.969Z,97865.81
2023-08-07T06:52:06.977Z,97869.81
2023-08-07T06:57:08.707Z,97867.53
2023-08-07T07:02:10.410Z,97875.22
2023-08-07T07:07:12.089Z,97874.53
2023-08-07T07:12:13.771Z,97872.59
2023-08-07T07:17:15.873Z,97883.28
2023-08-07T07:22:17.654Z,97887.13
2023-08-07T07:27:21.646Z,97892.88
2023-08-07T07:32:27.290Z,97906.59
2023-08-07T07:37:29.071Z,97906.34
2023-08-07T07:42:30.833Z,97908.53
2023-08-07T07:47:32.519Z,97914.25
2023-08-07T07:52:34.736Z,97925.06
2023-08-07T07:57:36.585Z,97922.72
2023-08-07T08:02:39.830Z,97919.66
2023-08-07T08:07:43.446Z,97932.16
2023-08-07T08:12:46.123Z,97944.59
2023-08-07T08:24:13.504Z,97935.53
2023-08-07T08:29:16.073Z,97944.78
2023-08-07T08:34:17.700Z,97951.28
2023-08-07T08:39:19.436Z,97950.13
2023-08-07T08:44:23.411Z,97957.59
2023-08-07T08:49:37.226Z,97962.31
2023-08-07T08:54:39.697Z,97981.00
2023-08-07T08:59:43.225Z,97975.97
2023-08-07T09:04:50.350Z,97970.59
2023-08-07T09:09:52.410Z,97971.22
2023-08-07T09:14:58.495Z,97980.69
2023-08-07T09:20:00.795Z,97986.63
2023-08-07T09:25:04.561Z,97983.53
2023-08-07T09:30:11.056Z,98001.38
2023-08-07T09:35:13.540Z,98004.91
2023-08-07T09:40:17.073Z,98002.00
2023-08-07T09:45:26.612Z,98001.97
2023-08-07T09:50:29.493Z,98017.97
2023-08-07T09:55:32.365Z,98016.28
2023-08-07T10:00:37.191Z,98020.03
2023-08-07T10:05:38.892Z,98027.03
2023-08-07T10:10:40.737Z,98022.81
2023-08-07T10:15:45.651Z,98032.97
2023-08-07T10:20:47.409Z,98030.66
2023-08-07T10:25:51.556Z,98040.59
2023-08-07T10:30:53.937Z,98050.50
2023-08-07T10:35:55.625Z,98048.50
2023-08-07T10:41:03.005Z,98046.50
2023-08-07T10:46:06.907Z,98047.19
2023-08-07T10:51:09.060Z,98051.56
2023-08-07T10:56:12.964Z,98058.13
2023-08-07T11:01:21.021Z,98055.97
2023-08-07T11:06:25.648Z,98053.41
2023-08-07T11:11:36.244Z,98053.59
2023-08-07T11:16:38.490Z,98052.41
2023-08-07T11:21:41.869Z,98056.06
2023-08-07T11:26:45.074Z,98053.00
2023-08-07T11:31:48.461Z,98056.25
2023-08-07T11:36:50.201Z,98051.78
2023-08-07T11:41:56.449Z,98067.00
2023-08-07T11:46:58.766Z,98068.31
2023-08-07T11:52:01.010Z,98076.69
2023-08-07T11:57:02.814Z,98077.38
2023-08-07T12:02:13.170Z,98083.28
2023-08-07T12:07:20.786Z,98084.72
2023-08-07T12:12:23.037Z,98094.44
2023-08-07T12:17:26.242Z,98093.84
2023-08-07T12:22:29.723Z,98095.56
2023-08-07T12:27:31.531Z,98101.50
2023-08-07T12:32:33.265Z,98102.00
2023-08-07T12:37:34.956Z,98102.91
2023-08-07T12:42:36.712Z,98105.03
2023-08-07T12:47:38.475Z,98110.50
2023-08-07T12:52:40.370Z,98107.53
2023-08-07T12:57:46.252Z,98107.34
2023-08-07T13:02:49.488Z,98113.97
2023-08-07T13:07:53.616Z,98112.63
2023-08-07T13:12:55.365Z,98109.50
2023-08-07T13:17:57.127Z,98102.13
2023-08-07T13:22:58.829Z,98118.03
2023-08-07T13:28:00.577Z,98117.09
2023-08-07T13:33:02.378Z,98112.47
2023-08-07T13:38:07.082Z,98118.81
2023-08-07T13:43:10.744Z,98117.19
2023-08-07T13:48:13.946Z,98134.19
2023-08-07T13:53:17.109Z,98129.66
2023-08-07T13:58:20.767Z,98138.19
2023-08-07T14:03:24.673Z,98139.44
2023-08-07T14:08:28.029Z,98136.44
2023-08-07T14:13:32.324Z,98137.97
2023-08-07T14:18:36.878Z,98140.91
2023-08-07T14:23:38.711Z,98145.84
2023-08-07T14:28:40.584Z,98155.91
2023-08-07T14:33:42.464Z,98159.53
2023-08-07T14:38:44.125Z,98155.66
2023-08-07T14:43:46.933Z,98165.66
2023-08-07T14:48:48.803Z,98166.31
2023-08-07T14:53:50.518Z,98171.69
2023-08-07T14:58:52.253Z,98162.84
2023-08-07T15:03:54.076Z,98162.50
2023-08-07T15:08:55.886Z,98159.59
2023-08-07T15:13:57.566Z,98159.97
2023-08-07T15:18:59.309Z,98158.28
2023-08-07T15:24:01.166Z,98156.31
2023-08-07T15:29:05.656Z,98151.75
2023-08-07T15:34:07.797Z,98153.88
2023-08-07T15:39:09.931Z,98159.31
2023-08-07T15:44:12.332Z,98159.69
2023-08-07T15:49:15.282Z,98165.75
2023-08-07T15:54:18.439Z,98171.25
2023-08-07T15:59:20.377Z,98168.88
2023-08-07T16:04:22.776Z,98179.41
2023-08-07T16:09:25.814Z,98174.34
2023-08-07T16:14:28.814Z,98182.19
2023-08-07T16:19:31.905Z,98181.16
2023-08-07T16:24:35.083Z,98182.31
2023-08-07T16:29:37.430Z,98183.72
2023-08-07T16:34:39.822Z,98189.69
2023-08-07T16:39:44.071Z,98181.03
2023-08-07T16:44:47.244Z,98189.72
2023-08-07T16:49:50.863Z,98196.59
2023-08-07T16:54:55.407Z,98208.09
2023-08-07T16:59:58.524Z,98214.03
2023-08-07T17:05:01.691Z,98214.38
2023-08-07T17:10:05.159Z,98219.47
2023-08-07T17:15:08.728Z,98225.56
2023-08-07T17:20:12.273Z,98227.47
2023-08-07T17:25:15.216Z,98239.78
2023-08-07T17:30:18.199Z,98252.88
2023-08-07T17:35:21.490Z,98252.56
2023-08-07T17:40:25.866Z,98258.47
2023-08-07T17:45:29.289Z,98267.13
2023-08-07T17:50:32.313Z,98285.56
2023-08-07T17:55:35.788Z,98294.63
2023-08-07T18:00:39.350Z,98302.06
2023-08-07T18:05:46.182Z,98297.53
2023-08-07T18:10:50.014Z,98311.81
2023-08-07T18:15:53.405Z,98311.41
2023-08-07T18:20:56.833Z,98321.06
2023-08-07T18:26:00.042Z,98330.13
2023-08-07T18:31:04.498Z,98340.59
2023-08-07T18:36:08.045Z,98349.81
2023-08-07T18:41:11.405Z,98367.00
2023-08-07T18:46:15.822Z,98376.09
2023-08-07T18:51:20.641Z,98380.78
2023-08-07T18:56:24.271Z,98390.19
2023-08-07T19:01:27.612Z,98394.50
2023-08-07T19:06:34.526Z,98408.38
2023-08-07T19:11:38.187Z,98417.97
2023-08-07T19:16:46.786Z,98425.66
2023-08-07T19:21:50.189Z,98430.72
2023-08-07T19:26:54.983Z,98434.94
2023-08-07T19:31:59.743Z,98444.31
2023-08-07T19:37:03.135Z,98437.75
2023-08-07T19:42:07.767Z,98438.72
2023-08-07T19:47:22.222Z,98442.28
2023-08-07T19:52:36.485Z,98447.06
2023-08-07T19:57:40.576Z,98452.00
2023-08-07T20:02:43.800Z,98464.28
2023-08-07T20:07:46.861Z,98460.78
2023-08-07T20:12:49.975Z,98453.56
2023-08-07T20:17:53.229Z,98462.47
2023-08-07T20:22:56.324Z,98463.97
2023-08-07T20:27:59.269Z,98461.47
2023-08-07T20:33:02.351Z,98470.34
2023-08-07T20:38:05.583Z,98471.47
2023-08-07T20:43:08.584Z,98470.75
2023-08-07T20:48:11.085Z,98474.78
2023-08-07T20:53:13.537Z,98484.13
2023-08-07T20:58:15.293Z,98485.91
2023-08-07T21:03:17.655Z,98486.19
2023-08-07T21:08:19.223Z,98481.94
2023-08-07T21:13:21.095Z,98483.69
2023-08-07T21:18:22.679Z,98500.06
2023-08-07T21:23:24.303Z,98496.09
2023-08-07T21:28:25.996Z,98493.38
2023-08-07T21:33:27.713Z,98495.28
2023-08-07T21:38:29.292Z,98498.72
2023-08-07T21:43:31.041Z,98501.78
2023-08-07T21:48:32.730Z,98508.56
2023-08-07T21:53:34.383Z,98509.06
2023-08-07T21:58:36.010Z,98516.38
2023-08-07T22:03:37.655Z,98519.72
2023-08-07T22:08:39.404Z,98528.56
2023-08-07T22:13:40.987Z,98522.13
2023-08-07T22:18:42.681Z,98528.84
2023-08-07T22:23:44.308Z,98551.34
2023-08-07T22:28:45.987Z,98539.69
2023-08-07T22:33:48.471Z,98538.22
2023-08-07T22:38:50.174Z,98538.09
2023-08-07T22:43:51.821Z,98545.63
2023-08-07T22:48:54.076Z,98547.66
2023-08-07T22:53:55.925Z,98554.16
2023-08-07T22:58:57.553Z,98557.16
2023-08-07T23:03:59.202Z,98549.22
2023-08-07T23:09:01.715Z,98569.47
2023-08-07T23:14:03.298Z,98565.09
2023-08-07T23:19:04.927Z,98560.66
2023-08-07T23:24:07.251Z,98572.84
2023-08-07T23:29:08.879Z,98580.38
2023-08-07T23:34:10.475Z,98587.88
2023-08-07T23:39:12.066Z,98590.28
2023-08-07T23:44:13.663Z,98588.84
2023-08-07T23:49:15.244Z,98592.69
2023-08-07T23:54:16.993Z,98592.53
2023-08-07T23:59:18.662Z,98589.25
